Weather at Dunphy Airport [CLOSED]

Public forecast

Using degrees Celsius for public forecast. Weather courtesy of forecast.io.

Closest aviation weather report (METAR) to Dunphy Airport

Closest report is CFB Gagetown Heliport, 53.0 nm (98.1 km) SSW. Retrieved 2021/07/30 00:00 UTC (49 minutes ago):

CYCX 300000Z AUTO 18008KT 9SM 18/09 A2981 RMK SLP095

Closest aviation forecast (TAF) to Dunphy Airport

Closest forecast is CFB Gagetown Heliport, 53.0 nm (98.1 km) SSW. Retrieved 2021/07/29 21:33 UTC (3 hours ago):

TAF TAF CYCX 292030Z 2921/3009 24010KT P6SM FEW060 SCT240 FM292200 20010KT P6SM FEW060 BKN160 FM300300 19008KT P6SM -SHRA SCT015 OVC080 FM300600 19008KT 5SM -RA BR SCT008 OVC015 RMK NXT FCST BY 300300Z